Pagina principale
METAR-TAF:

METAR-TAF

Aeroporti :

Le Luc, Francia

latitudine: 43-23N, longitudine: 006-23E, altezza: 80 m

Osservazione

Il bollettino è stato emesso 11 minuti fa, alle 04:30 UTC
Vento 5 kt da ovest, variando fra sud-ovest e ovest/nord-ovest
Temperature 18°C
Umidità 68%
Pressione 1015 hPa
Visibilità 10 km o più

METAR: LFMC 030430Z AUTO 26005KT 220V290 9999 ////// 18/12 Q1015

Ora: 06:41 (04:41 UTC)


TAF: mancante

Osservazioni e previsioni meteorologiche di più di 4000 aeroporti (messaggi METAR e TAF).

Le stazioni disponibili sono rappresentate dai dischi gialli e rossi sulla carta.

Puntare il mouse per vedere il nome della stazione.

Clicca sopra per visualizzare le osservazioni e previsioni meteorologiche.

Per cambiare la mappa : fare clic sui pulsanti verdi con una croce nera per ingrandire, il pulsante verde con un trattino per diminuire, o sulla freccia verde per le mappe adiacenti.


METAR-TAF: